sensor_id;sensor_type;location;lat;lon;timestamp;temperature;humidity
36548;DHT22;22551;52.206;4.856;2023-03-14T00:02:08;10.00;99.90
36548;DHT22;22551;52.206;4.856;2023-03-14T00:07:11;10.00;99.90
36548;DHT22;22551;52.206;4.856;2023-03-14T00:12:16;10.10;99.90
36548;DHT22;22551;52.206;4.856;2023-03-14T00:17:18;10.20;99.90
36548;DHT22;22551;52.206;4.856;2023-03-14T00:22:21;10.20;99.90
36548;DHT22;22551;52.206;4.856;2023-03-14T00:27:25;10.20;99.90
36548;DHT22;22551;52.206;4.856;2023-03-14T00:32:28;10.20;99.90
36548;DHT22;22551;52.206;4.856;2023-03-14T00:37:32;10.20;99.90
36548;DHT22;22551;52.206;4.856;2023-03-14T00:42:36;10.20;99.90
36548;DHT22;22551;52.206;4.856;2023-03-14T00:47:39;10.20;99.90
36548;DHT22;22551;52.206;4.856;2023-03-14T00:52:46;10.20;99.90
36548;DHT22;22551;52.206;4.856;2023-03-14T00:57:51;10.20;99.90
36548;DHT22;22551;52.206;4.856;2023-03-14T01:02:56;10.10;99.90
36548;DHT22;22551;52.206;4.856;2023-03-14T01:07:59;10.10;99.90
36548;DHT22;22551;52.206;4.856;2023-03-14T01:13:03;10.10;99.90
36548;DHT22;22551;52.206;4.856;2023-03-14T01:18:06;10.00;99.90
36548;DHT22;22551;52.206;4.856;2023-03-14T01:23:08;9.90;99.90
36548;DHT22;22551;52.206;4.856;2023-03-14T01:28:12;9.80;99.90
36548;DHT22;22551;52.206;4.856;2023-03-14T01:33:14;9.80;99.90
36548;DHT22;22551;52.206;4.856;2023-03-14T01:38:17;9.80;99.90
36548;DHT22;22551;52.206;4.856;2023-03-14T01:43:20;9.80;99.90
36548;DHT22;22551;52.206;4.856;2023-03-14T01:48:25;9.80;99.90
36548;DHT22;22551;52.206;4.856;2023-03-14T01:53:29;9.80;99.90
36548;DHT22;22551;52.206;4.856;2023-03-14T01:58:33;9.80;99.90
36548;DHT22;22551;52.206;4.856;2023-03-14T02:03:45;9.80;99.90
36548;DHT22;22551;52.206;4.856;2023-03-14T02:08:50;9.80;99.90
36548;DHT22;22551;52.206;4.856;2023-03-14T02:13:54;9.80;99.90
36548;DHT22;22551;52.206;4.856;2023-03-14T02:18:57;9.80;99.90
36548;DHT22;22551;52.206;4.856;2023-03-14T02:24:07;9.90;99.90
36548;DHT22;22551;52.206;4.856;2023-03-14T02:29:13;9.80;99.90
36548;DHT22;22551;52.206;4.856;2023-03-14T02:34:15;9.80;99.90
36548;DHT22;22551;52.206;4.856;2023-03-14T02:39:22;9.90;99.90
36548;DHT22;22551;52.206;4.856;2023-03-14T02:44:28;9.90;99.90
36548;DHT22;22551;52.206;4.856;2023-03-14T02:49:31;9.90;99.90
36548;DHT22;22551;52.206;4.856;2023-03-14T02:54:34;9.90;99.90
36548;DHT22;22551;52.206;4.856;2023-03-14T02:59:38;9.90;99.90
36548;DHT22;22551;52.206;4.856;2023-03-14T03:04:40;9.80;99.90
36548;DHT22;22551;52.206;4.856;2023-03-14T03:09:42;9.70;99.90
36548;DHT22;22551;52.206;4.856;2023-03-14T03:14:47;9.70;99.90
36548;DHT22;22551;52.206;4.856;2023-03-14T03:19:49;9.60;99.90
36548;DHT22;22551;52.206;4.856;2023-03-14T03:24:51;9.60;99.90
36548;DHT22;22551;52.206;4.856;2023-03-14T03:29:55;9.50;99.90
36548;DHT22;22551;52.206;4.856;2023-03-14T03:34:57;9.50;99.90
36548;DHT22;22551;52.206;4.856;2023-03-14T03:40:00;9.50;99.90
36548;DHT22;22551;52.206;4.856;2023-03-14T03:45:07;9.50;99.90
36548;DHT22;22551;52.206;4.856;2023-03-14T03:50:10;9.50;99.90
36548;DHT22;22551;52.206;4.856;2023-03-14T03:55:13;9.50;99.90
36548;DHT22;22551;52.206;4.856;2023-03-14T04:00:18;9.60;99.90
36548;DHT22;22551;52.206;4.856;2023-03-14T04:05:20;9.60;99.90
36548;DHT22;22551;52.206;4.856;2023-03-14T04:10:23;9.60;99.90
36548;DHT22;22551;52.206;4.856;2023-03-14T04:15:27;9.60;99.90
36548;DHT22;22551;52.206;4.856;2023-03-14T04:20:30;9.60;99.90
36548;DHT22;22551;52.206;4.856;2023-03-14T04:25:32;9.70;99.90
36548;DHT22;22551;52.206;4.856;2023-03-14T04:30:36;9.70;99.90
36548;DHT22;22551;52.206;4.856;2023-03-14T04:35:39;9.70;99.90
36548;DHT22;22551;52.206;4.856;2023-03-14T04:40:41;9.60;99.90
36548;DHT22;22551;52.206;4.856;2023-03-14T04:45:45;9.60;99.90
36548;DHT22;22551;52.206;4.856;2023-03-14T04:50:48;9.50;99.90
36548;DHT22;22551;52.206;4.856;2023-03-14T04:55:54;9.40;99.90
36548;DHT22;22551;52.206;4.856;2023-03-14T05:01:03;9.30;99.90
36548;DHT22;22551;52.206;4.856;2023-03-14T05:06:06;9.30;99.90
36548;DHT22;22551;52.206;4.856;2023-03-14T05:11:10;9.30;99.90
36548;DHT22;22551;52.206;4.856;2023-03-14T05:16:14;9.20;99.90
36548;DHT22;22551;52.206;4.856;2023-03-14T05:21:16;9.20;99.90
36548;DHT22;22551;52.206;4.856;2023-03-14T05:26:19;9.20;99.90
36548;DHT22;22551;52.206;4.856;2023-03-14T05:31:22;9.20;99.90
36548;DHT22;22551;52.206;4.856;2023-03-14T05:36:24;9.10;99.90
36548;DHT22;22551;52.206;4.856;2023-03-14T05:41:26;9.10;99.90
36548;DHT22;22551;52.206;4.856;2023-03-14T05:46:31;9.10;99.90
36548;DHT22;22551;52.206;4.856;2023-03-14T05:51:33;9.10;99.90
36548;DHT22;22551;52.206;4.856;2023-03-14T05:56:35;9.10;99.90
36548;DHT22;22551;52.206;4.856;2023-03-14T06:01:39;8.80;99.90
36548;DHT22;22551;52.206;4.856;2023-03-14T06:06:41;8.50;99.90
36548;DHT22;22551;52.206;4.856;2023-03-14T06:11:43;8.20;99.90
36548;DHT22;22551;52.206;4.856;2023-03-14T06:16:48;8.10;99.90
36548;DHT22;22551;52.206;4.856;2023-03-14T06:21:54;8.00;99.90
36548;DHT22;22551;52.206;4.856;2023-03-14T06:26:56;7.90;99.90
36548;DHT22;22551;52.206;4.856;2023-03-14T06:32:00;7.80;99.90
36548;DHT22;22551;52.206;4.856;2023-03-14T06:37:02;7.80;99.90
36548;DHT22;22551;52.206;4.856;2023-03-14T06:42:05;7.70;99.90
36548;DHT22;22551;52.206;4.856;2023-03-14T06:47:08;7.50;99.90
36548;DHT22;22551;52.206;4.856;2023-03-14T06:52:11;7.40;99.90
36548;DHT22;22551;52.206;4.856;2023-03-14T06:57:13;7.40;99.90
36548;DHT22;22551;52.206;4.856;2023-03-14T07:02:17;7.30;99.90
36548;DHT22;22551;52.206;4.856;2023-03-14T07:07:20;7.20;99.90
36548;DHT22;22551;52.206;4.856;2023-03-14T07:12:22;7.20;99.90
36548;DHT22;22551;52.206;4.856;2023-03-14T07:17:26;7.20;99.90
36548;DHT22;22551;52.206;4.856;2023-03-14T07:22:28;7.20;99.90
36548;DHT22;22551;52.206;4.856;2023-03-14T07:27:31;7.30;99.90
36548;DHT22;22551;52.206;4.856;2023-03-14T07:32:35;7.20;99.90
36548;DHT22;22551;52.206;4.856;2023-03-14T07:37:40;7.20;99.90
36548;DHT22;22551;52.206;4.856;2023-03-14T07:42:42;7.10;99.90
36548;DHT22;22551;52.206;4.856;2023-03-14T07:47:46;6.80;99.90
36548;DHT22;22551;52.206;4.856;2023-03-14T07:52:49;6.50;99.90
36548;DHT22;22551;52.206;4.856;2023-03-14T07:57:51;6.00;99.90
36548;DHT22;22551;52.206;4.856;2023-03-14T08:02:55;5.80;99.90
36548;DHT22;22551;52.206;4.856;2023-03-14T08:07:57;5.70;99.90
36548;DHT22;22551;52.206;4.856;2023-03-14T08:13:00;5.70;99.90
36548;DHT22;22551;52.206;4.856;2023-03-14T08:18:05;5.80;99.90
36548;DHT22;22551;52.206;4.856;2023-03-14T08:23:09;5.60;99.90
36548;DHT22;22551;52.206;4.856;2023-03-14T08:28:11;5.80;99.90
36548;DHT22;22551;52.206;4.856;2023-03-14T08:33:15;5.90;99.90
36548;DHT22;22551;52.206;4.856;2023-03-14T08:38:17;5.80;99.90
36548;DHT22;22551;52.206;4.856;2023-03-14T08:43:19;5.90;99.90
36548;DHT22;22551;52.206;4.856;2023-03-14T08:48:23;6.00;99.90
36548;DHT22;22551;52.206;4.856;2023-03-14T08:53:25;6.10;99.90
36548;DHT22;22551;52.206;4.856;2023-03-14T08:58:28;6.10;99.90
36548;DHT22;22551;52.206;4.856;2023-03-14T09:03:32;6.10;99.90
36548;DHT22;22551;52.206;4.856;2023-03-14T09:08:34;6.20;99.90
36548;DHT22;22551;52.206;4.856;2023-03-14T09:13:37;6.30;99.90
36548;DHT22;22551;52.206;4.856;2023-03-14T09:18:41;6.40;99.90
36548;DHT22;22551;52.206;4.856;2023-03-14T09:23:43;6.50;99.90
36548;DHT22;22551;52.206;4.856;2023-03-14T09:28:46;6.50;99.90
36548;DHT22;22551;52.206;4.856;2023-03-14T09:33:50;6.40;99.90
36548;DHT22;22551;52.206;4.856;2023-03-14T09:38:53;6.40;99.90
36548;DHT22;22551;52.206;4.856;2023-03-14T09:44:01;6.40;99.90
36548;DHT22;22551;52.206;4.856;2023-03-14T09:49:12;6.40;99.90
36548;DHT22;22551;52.206;4.856;2023-03-14T09:54:30;6.30;99.90
36548;DHT22;22551;52.206;4.856;2023-03-14T09:59:35;6.40;99.90
36548;DHT22;22551;52.206;4.856;2023-03-14T10:04:40;6.40;99.90
36548;DHT22;22551;52.206;4.856;2023-03-14T10:09:47;6.50;99.90
36548;DHT22;22551;52.206;4.856;2023-03-14T10:14:52;6.70;99.90
36548;DHT22;22551;52.206;4.856;2023-03-14T10:19:57;6.70;99.90
36548;DHT22;22551;52.206;4.856;2023-03-14T10:25:02;6.80;99.90
36548;DHT22;22551;52.206;4.856;2023-03-14T10:30:14;6.50;99.90
36548;DHT22;22551;52.206;4.856;2023-03-14T10:35:34;6.50;99.90
36548;DHT22;22551;52.206;4.856;2023-03-14T10:40:39;6.70;99.90
36548;DHT22;22551;52.206;4.856;2023-03-14T10:45:43;6.80;99.90
36548;DHT22;22551;52.206;4.856;2023-03-14T10:50:55;6.70;99.90
36548;DHT22;22551;52.206;4.856;2023-03-14T10:56:02;7.20;99.90
36548;DHT22;22551;52.206;4.856;2023-03-14T11:01:28;7.20;99.90
36548;DHT22;22551;52.206;4.856;2023-03-14T11:06:43;7.50;99.90
36548;DHT22;22551;52.206;4.856;2023-03-14T11:11:48;7.60;99.90
36548;DHT22;22551;52.206;4.856;2023-03-14T11:16:57;7.60;99.90
36548;DHT22;22551;52.206;4.856;2023-03-14T11:22:11;7.50;99.90
36548;DHT22;22551;52.206;4.856;2023-03-14T11:27:18;7.80;99.90
36548;DHT22;22551;52.206;4.856;2023-03-14T11:32:36;7.60;99.90
36548;DHT22;22551;52.206;4.856;2023-03-14T11:37:47;7.80;99.90
36548;DHT22;22551;52.206;4.856;2023-03-14T11:42:59;7.70;99.90
36548;DHT22;22551;52.206;4.856;2023-03-14T11:48:24;7.60;99.90
36548;DHT22;22551;52.206;4.856;2023-03-14T11:53:40;7.70;99.90
36548;DHT22;22551;52.206;4.856;2023-03-14T11:58:55;7.60;99.90
36548;DHT22;22551;52.206;4.856;2023-03-14T12:04:04;7.60;99.90
36548;DHT22;22551;52.206;4.856;2023-03-14T12:09:13;7.80;99.90
36548;DHT22;22551;52.206;4.856;2023-03-14T12:14:24;8.00;99.90
36548;DHT22;22551;52.206;4.856;2023-03-14T12:19:31;8.30;99.90
36548;DHT22;22551;52.206;4.856;2023-03-14T12:24:45;8.50;99.90
36548;DHT22;22551;52.206;4.856;2023-03-14T12:29:59;8.30;99.90
36548;DHT22;22551;52.206;4.856;2023-03-14T12:40:40;8.40;99.90
36548;DHT22;22551;52.206;4.856;2023-03-14T12:46:07;8.10;99.90
36548;DHT22;22551;52.206;4.856;2023-03-14T12:51:18;8.20;99.90
36548;DHT22;22551;52.206;4.856;2023-03-14T12:56:32;8.20;99.90
36548;DHT22;22551;52.206;4.856;2023-03-14T13:01:47;8.80;99.90
36548;DHT22;22551;52.206;4.856;2023-03-14T13:06:56;8.80;99.90
36548;DHT22;22551;52.206;4.856;2023-03-14T13:12:02;8.70;99.90
36548;DHT22;22551;52.206;4.856;2023-03-14T13:17:10;8.20;99.90
36548;DHT22;22551;52.206;4.856;2023-03-14T13:22:19;8.10;99.90
36548;DHT22;22551;52.206;4.856;2023-03-14T13:27:24;8.50;99.90
36548;DHT22;22551;52.206;4.856;2023-03-14T13:32:28;8.80;99.90
36548;DHT22;22551;52.206;4.856;2023-03-14T13:37:31;8.70;99.90
36548;DHT22;22551;52.206;4.856;2023-03-14T13:42:34;8.70;99.90
36548;DHT22;22551;52.206;4.856;2023-03-14T13:47:38;8.70;99.90
36548;DHT22;22551;52.206;4.856;2023-03-14T13:52:41;8.50;99.90
36548;DHT22;22551;52.206;4.856;2023-03-14T13:57:48;8.60;99.90
36548;DHT22;22551;52.206;4.856;2023-03-14T14:02:56;8.50;99.90
36548;DHT22;22551;52.206;4.856;2023-03-14T14:07:59;8.10;99.90
36548;DHT22;22551;52.206;4.856;2023-03-14T14:13:09;8.10;99.90
36548;DHT22;22551;52.206;4.856;2023-03-14T14:18:15;8.10;99.90
36548;DHT22;22551;52.206;4.856;2023-03-14T14:23:21;7.70;99.90
36548;DHT22;22551;52.206;4.856;2023-03-14T14:28:29;7.50;99.90
36548;DHT22;22551;52.206;4.856;2023-03-14T14:33:40;7.50;99.90
36548;DHT22;22551;52.206;4.856;2023-03-14T14:38:49;7.30;99.90
36548;DHT22;22551;52.206;4.856;2023-03-14T14:43:57;7.10;99.90
36548;DHT22;22551;52.206;4.856;2023-03-14T14:49:04;7.00;99.90
36548;DHT22;22551;52.206;4.856;2023-03-14T14:54:14;7.30;99.90
36548;DHT22;22551;52.206;4.856;2023-03-14T14:59:22;7.50;99.90
36548;DHT22;22551;52.206;4.856;2023-03-14T15:04:30;7.60;99.90
36548;DHT22;22551;52.206;4.856;2023-03-14T15:09:33;7.40;99.90
36548;DHT22;22551;52.206;4.856;2023-03-14T15:14:36;7.50;99.90
36548;DHT22;22551;52.206;4.856;2023-03-14T15:19:39;7.40;99.90
36548;DHT22;22551;52.206;4.856;2023-03-14T15:24:41;7.20;99.90
36548;DHT22;22551;52.206;4.856;2023-03-14T15:29:45;7.20;99.90
36548;DHT22;22551;52.206;4.856;2023-03-14T15:34:47;7.40;99.90
36548;DHT22;22551;52.206;4.856;2023-03-14T15:39:49;7.30;99.90
36548;DHT22;22551;52.206;4.856;2023-03-14T15:44:53;7.10;99.90
36548;DHT22;22551;52.206;4.856;2023-03-14T15:49:55;7.20;99.90
36548;DHT22;22551;52.206;4.856;2023-03-14T15:54:57;7.10;99.90
36548;DHT22;22551;52.206;4.856;2023-03-14T16:00:02;7.00;99.90
36548;DHT22;22551;52.206;4.856;2023-03-14T16:05:09;6.90;99.90
36548;DHT22;22551;52.206;4.856;2023-03-14T16:10:14;6.80;99.90
36548;DHT22;22551;52.206;4.856;2023-03-14T16:15:18;6.70;99.90
36548;DHT22;22551;52.206;4.856;2023-03-14T16:20:21;6.80;99.90
36548;DHT22;22551;52.206;4.856;2023-03-14T16:25:23;6.80;99.90
36548;DHT22;22551;52.206;4.856;2023-03-14T16:30:27;6.80;99.90
36548;DHT22;22551;52.206;4.856;2023-03-14T16:35:29;6.90;99.90
36548;DHT22;22551;52.206;4.856;2023-03-14T16:40:32;6.90;99.90
36548;DHT22;22551;52.206;4.856;2023-03-14T16:45:37;6.80;99.90
36548;DHT22;22551;52.206;4.856;2023-03-14T16:50:39;6.80;99.90
36548;DHT22;22551;52.206;4.856;2023-03-14T16:55:42;6.70;99.90
36548;DHT22;22551;52.206;4.856;2023-03-14T17:00:46;6.50;99.90
36548;DHT22;22551;52.206;4.856;2023-03-14T17:05:50;6.30;99.90
36548;DHT22;22551;52.206;4.856;2023-03-14T17:10:53;6.20;99.90
36548;DHT22;22551;52.206;4.856;2023-03-14T17:15:58;6.10;99.90
36548;DHT22;22551;52.206;4.856;2023-03-14T17:21:02;6.20;99.90
36548;DHT22;22551;52.206;4.856;2023-03-14T17:26:05;6.20;99.90
36548;DHT22;22551;52.206;4.856;2023-03-14T17:31:13;6.10;99.90
36548;DHT22;22551;52.206;4.856;2023-03-14T17:36:17;5.90;99.90
36548;DHT22;22551;52.206;4.856;2023-03-14T17:41:22;5.70;99.90
36548;DHT22;22551;52.206;4.856;2023-03-14T17:46:25;5.60;99.90
36548;DHT22;22551;52.206;4.856;2023-03-14T17:51:27;5.50;99.90
36548;DHT22;22551;52.206;4.856;2023-03-14T17:56:30;5.40;99.90
36548;DHT22;22551;52.206;4.856;2023-03-14T18:01:33;5.30;99.90
36548;DHT22;22551;52.206;4.856;2023-03-14T18:06:36;5.20;99.90
36548;DHT22;22551;52.206;4.856;2023-03-14T18:11:38;5.10;99.90
36548;DHT22;22551;52.206;4.856;2023-03-14T18:16:41;5.00;99.90
36548;DHT22;22551;52.206;4.856;2023-03-14T18:21:48;4.90;99.90
36548;DHT22;22551;52.206;4.856;2023-03-14T18:26:51;4.80;99.90
36548;DHT22;22551;52.206;4.856;2023-03-14T18:31:55;4.70;99.90
36548;DHT22;22551;52.206;4.856;2023-03-14T18:36:57;4.60;99.90
36548;DHT22;22551;52.206;4.856;2023-03-14T18:42:00;4.50;99.90
36548;DHT22;22551;52.206;4.856;2023-03-14T18:47:04;4.40;99.90
36548;DHT22;22551;52.206;4.856;2023-03-14T18:52:06;4.30;99.90
36548;DHT22;22551;52.206;4.856;2023-03-14T18:57:08;4.20;99.90
36548;DHT22;22551;52.206;4.856;2023-03-14T19:02:12;4.20;99.90
36548;DHT22;22551;52.206;4.856;2023-03-14T19:07:14;4.10;99.90
36548;DHT22;22551;52.206;4.856;2023-03-14T19:12:16;4.10;99.90
36548;DHT22;22551;52.206;4.856;2023-03-14T19:17:20;4.10;99.90
36548;DHT22;22551;52.206;4.856;2023-03-14T19:22:22;4.10;99.90
36548;DHT22;22551;52.206;4.856;2023-03-14T19:27:25;4.10;99.90
36548;DHT22;22551;52.206;4.856;2023-03-14T19:32:28;4.10;99.90
36548;DHT22;22551;52.206;4.856;2023-03-14T19:37:31;4.10;99.90
36548;DHT22;22551;52.206;4.856;2023-03-14T19:42:33;4.10;99.90
36548;DHT22;22551;52.206;4.856;2023-03-14T19:47:38;4.10;99.90
36548;DHT22;22551;52.206;4.856;2023-03-14T19:52:40;4.10;99.90
36548;DHT22;22551;52.206;4.856;2023-03-14T19:57:44;4.00;99.90
36548;DHT22;22551;52.206;4.856;2023-03-14T20:02:49;4.00;99.90
36548;DHT22;22551;52.206;4.856;2023-03-14T20:07:52;3.90;99.90
36548;DHT22;22551;52.206;4.856;2023-03-14T20:12:54;3.90;99.90
36548;DHT22;22551;52.206;4.856;2023-03-14T20:17:59;3.80;99.90
36548;DHT22;22551;52.206;4.856;2023-03-14T20:23:02;3.80;99.90
36548;DHT22;22551;52.206;4.856;2023-03-14T20:28:04;3.80;99.90
36548;DHT22;22551;52.206;4.856;2023-03-14T20:33:08;3.80;99.90
36548;DHT22;22551;52.206;4.856;2023-03-14T20:38:12;3.80;99.90
36548;DHT22;22551;52.206;4.856;2023-03-14T20:43:15;3.80;99.90
36548;DHT22;22551;52.206;4.856;2023-03-14T20:48:19;3.80;99.90
36548;DHT22;22551;52.206;4.856;2023-03-14T20:53:22;3.90;99.90
36548;DHT22;22551;52.206;4.856;2023-03-14T20:58:24;3.90;99.90
36548;DHT22;22551;52.206;4.856;2023-03-14T21:03:28;4.00;99.90
36548;DHT22;22551;52.206;4.856;2023-03-14T21:08:31;4.20;99.90
36548;DHT22;22551;52.206;4.856;2023-03-14T21:13:33;4.30;99.90
36548;DHT22;22551;52.206;4.856;2023-03-14T21:18:37;4.50;99.90
36548;DHT22;22551;52.206;4.856;2023-03-14T21:23:39;4.70;99.90
36548;DHT22;22551;52.206;4.856;2023-03-14T21:28:41;4.80;99.90
36548;DHT22;22551;52.206;4.856;2023-03-14T21:33:46;4.90;99.90
36548;DHT22;22551;52.206;4.856;2023-03-14T21:38:49;4.80;99.90
36548;DHT22;22551;52.206;4.856;2023-03-14T21:43:51;4.70;99.90
36548;DHT22;22551;52.206;4.856;2023-03-14T21:48:55;4.70;99.90
36548;DHT22;22551;52.206;4.856;2023-03-14T21:53:57;4.60;99.90
36548;DHT22;22551;52.206;4.856;2023-03-14T21:58:59;4.70;99.90
36548;DHT22;22551;52.206;4.856;2023-03-14T22:04:04;4.20;99.90
36548;DHT22;22551;52.206;4.856;2023-03-14T22:09:06;3.70;99.90
36548;DHT22;22551;52.206;4.856;2023-03-14T22:14:09;3.60;99.90
36548;DHT22;22551;52.206;4.856;2023-03-14T22:19:12;3.60;99.90
36548;DHT22;22551;52.206;4.856;2023-03-14T22:24:14;3.70;99.90
36548;DHT22;22551;52.206;4.856;2023-03-14T22:29:17;3.70;99.90
36548;DHT22;22551;52.206;4.856;2023-03-14T22:34:21;3.80;99.90
36548;DHT22;22551;52.206;4.856;2023-03-14T22:39:23;3.70;99.90
36548;DHT22;22551;52.206;4.856;2023-03-14T22:44:26;3.80;99.90
36548;DHT22;22551;52.206;4.856;2023-03-14T22:49:33;3.40;99.90
36548;DHT22;22551;52.206;4.856;2023-03-14T22:54:36;3.00;99.90
36548;DHT22;22551;52.206;4.856;2023-03-14T22:59:38;2.90;99.90
36548;DHT22;22551;52.206;4.856;2023-03-14T23:04:42;2.90;99.90
36548;DHT22;22551;52.206;4.856;2023-03-14T23:09:44;2.90;99.90
36548;DHT22;22551;52.206;4.856;2023-03-14T23:14:46;3.00;99.90
36548;DHT22;22551;52.206;4.856;2023-03-14T23:19:50;3.00;99.90
36548;DHT22;22551;52.206;4.856;2023-03-14T23:24:53;3.10;99.90
36548;DHT22;22551;52.206;4.856;2023-03-14T23:29:55;3.20;99.90
36548;DHT22;22551;52.206;4.856;2023-03-14T23:34:59;3.20;99.90
36548;DHT22;22551;52.206;4.856;2023-03-14T23:40:01;3.20;99.90
36548;DHT22;22551;52.206;4.856;2023-03-14T23:45:06;3.10;99.90
36548;DHT22;22551;52.206;4.856;2023-03-14T23:50:10;3.20;99.90
36548;DHT22;22551;52.206;4.856;2023-03-14T23:55:13;3.10;99.90
